sensor_id;sensor_type;location;lat;lon;timestamp;pressure;altitude;pressure_sealevel;temperature;humidity
19023;BME280;35226;48.606;8.858;2022-09-01T00:00:48;96484.94;;;18.03;100.00
19023;BME280;35226;48.606;8.858;2022-09-01T00:03:18;96486.31;;;17.93;100.00
19023;BME280;35226;48.606;8.858;2022-09-01T00:05:44;96489.13;;;17.93;100.00
19023;BME280;35226;48.606;8.858;2022-09-01T00:08:11;96487.81;;;17.89;100.00
19023;BME280;35226;48.606;8.858;2022-09-01T00:10:38;96482.13;;;17.83;100.00
19023;BME280;35226;48.606;8.858;2022-09-01T00:13:04;96488.00;;;17.85;100.00
19023;BME280;35226;48.606;8.858;2022-09-01T00:15:33;96480.59;;;17.82;100.00
19023;BME280;35226;48.606;8.858;2022-09-01T00:17:58;96486.25;;;17.88;100.00
19023;BME280;35226;48.606;8.858;2022-09-01T00:20:24;96474.28;;;17.67;100.00
19023;BME280;35226;48.606;8.858;2022-09-01T00:22:50;96477.84;;;17.67;100.00
19023;BME280;35226;48.606;8.858;2022-09-01T00:25:16;96477.91;;;17.73;100.00
19023;BME280;35226;48.606;8.858;2022-09-01T00:27:45;96481.00;;;17.75;100.00
19023;BME280;35226;48.606;8.858;2022-09-01T00:30:11;96474.56;;;17.69;100.00
19023;BME280;35226;48.606;8.858;2022-09-01T00:32:37;96464.56;;;17.62;100.00
19023;BME280;35226;48.606;8.858;2022-09-01T00:35:03;96470.91;;;17.63;100.00
19023;BME280;35226;48.606;8.858;2022-09-01T00:37:29;96465.59;;;17.65;100.00
19023;BME280;35226;48.606;8.858;2022-09-01T00:39:55;96472.44;;;17.64;100.00
19023;BME280;35226;48.606;8.858;2022-09-01T00:42:21;96466.88;;;17.64;100.00
19023;BME280;35226;48.606;8.858;2022-09-01T00:44:47;96464.06;;;17.64;100.00
19023;BME280;35226;48.606;8.858;2022-09-01T00:47:13;96470.81;;;17.57;100.00
19023;BME280;35226;48.606;8.858;2022-09-01T00:49:44;96472.53;;;17.55;100.00
19023;BME280;35226;48.606;8.858;2022-09-01T00:52:31;96459.34;;;17.55;100.00
19023;BME280;35226;48.606;8.858;2022-09-01T00:55:09;96468.88;;;17.63;100.00
19023;BME280;35226;48.606;8.858;2022-09-01T00:57:35;96472.00;;;17.51;100.00
19023;BME280;35226;48.606;8.858;2022-09-01T01:00:07;96474.69;;;17.45;100.00
19023;BME280;35226;48.606;8.858;2022-09-01T01:02:37;96478.28;;;17.31;100.00
19023;BME280;35226;48.606;8.858;2022-09-01T01:05:04;96472.78;;;17.36;100.00
19023;BME280;35226;48.606;8.858;2022-09-01T01:07:30;96475.03;;;17.32;100.00
19023;BME280;35226;48.606;8.858;2022-09-01T01:10:02;96472.34;;;17.23;100.00
19023;BME280;35226;48.606;8.858;2022-09-01T01:12:27;96478.00;;;17.29;100.00
19023;BME280;35226;48.606;8.858;2022-09-01T01:14:55;96481.97;;;17.22;100.00
19023;BME280;35226;48.606;8.858;2022-09-01T01:17:22;96476.56;;;17.19;100.00
19023;BME280;35226;48.606;8.858;2022-09-01T01:19:50;96481.38;;;17.18;100.00
19023;BME280;35226;48.606;8.858;2022-09-01T01:25:24;96469.91;;;17.16;100.00
19023;BME280;35226;48.606;8.858;2022-09-01T01:27:50;96472.41;;;17.29;100.00
19023;BME280;35226;48.606;8.858;2022-09-01T01:30:18;96462.41;;;17.08;100.00
19023;BME280;35226;48.606;8.858;2022-09-01T01:32:45;96468.00;;;17.08;100.00
19023;BME280;35226;48.606;8.858;2022-09-01T01:35:14;96467.72;;;17.20;100.00
19023;BME280;35226;48.606;8.858;2022-09-01T01:37:43;96468.00;;;17.22;100.00
19023;BME280;35226;48.606;8.858;2022-09-01T01:40:14;96471.94;;;17.16;100.00
19023;BME280;35226;48.606;8.858;2022-09-01T01:42:49;96473.69;;;17.13;100.00
19023;BME280;35226;48.606;8.858;2022-09-01T01:45:18;96475.31;;;17.05;100.00
19023;BME280;35226;48.606;8.858;2022-09-01T01:47:46;96478.97;;;17.11;100.00
19023;BME280;35226;48.606;8.858;2022-09-01T01:50:30;96478.31;;;17.01;100.00
19023;BME280;35226;48.606;8.858;2022-09-01T01:53:02;96477.16;;;17.08;100.00
19023;BME280;35226;48.606;8.858;2022-09-01T01:55:28;96479.94;;;17.08;100.00
19023;BME280;35226;48.606;8.858;2022-09-01T01:57:58;96478.19;;;17.25;100.00
19023;BME280;35226;48.606;8.858;2022-09-01T02:00:29;96486.78;;;17.22;100.00
19023;BME280;35226;48.606;8.858;2022-09-01T02:02:56;96484.53;;;17.26;100.00
19023;BME280;35226;48.606;8.858;2022-09-01T02:05:25;96488.97;;;17.18;100.00
19023;BME280;35226;48.606;8.858;2022-09-01T02:07:54;96489.84;;;17.09;100.00
19023;BME280;35226;48.606;8.858;2022-09-01T02:10:24;96484.34;;;17.15;100.00
19023;BME280;35226;48.606;8.858;2022-09-01T02:12:50;96483.31;;;17.12;100.00
19023;BME280;35226;48.606;8.858;2022-09-01T02:15:18;96483.69;;;17.05;100.00
19023;BME280;35226;48.606;8.858;2022-09-01T02:17:43;96480.22;;;16.95;100.00
19023;BME280;35226;48.606;8.858;2022-09-01T02:20:11;96471.09;;;17.10;100.00
19023;BME280;35226;48.606;8.858;2022-09-01T02:22:40;96473.09;;;17.09;100.00
19023;BME280;35226;48.606;8.858;2022-09-01T02:25:09;96469.06;;;17.10;100.00
19023;BME280;35226;48.606;8.858;2022-09-01T02:27:35;96474.72;;;17.16;100.00
19023;BME280;35226;48.606;8.858;2022-09-01T02:30:05;96472.03;;;17.21;100.00
19023;BME280;35226;48.606;8.858;2022-09-01T02:32:36;96470.91;;;17.13;100.00
19023;BME280;35226;48.606;8.858;2022-09-01T02:35:03;96475.22;;;17.14;100.00
19023;BME280;35226;48.606;8.858;2022-09-01T02:37:32;96471.94;;;17.30;100.00
19023;BME280;35226;48.606;8.858;2022-09-01T02:39:58;96472.81;;;17.22;100.00
19023;BME280;35226;48.606;8.858;2022-09-01T02:42:24;96464.53;;;17.13;100.00
19023;BME280;35226;48.606;8.858;2022-09-01T02:44:56;96476.97;;;17.12;100.00
19023;BME280;35226;48.606;8.858;2022-09-01T02:47:23;96476.84;;;17.06;100.00
19023;BME280;35226;48.606;8.858;2022-09-01T02:49:52;96479.84;;;17.02;100.00
19023;BME280;35226;48.606;8.858;2022-09-01T02:52:18;96472.16;;;17.12;100.00
19023;BME280;35226;48.606;8.858;2022-09-01T02:54:46;96480.88;;;17.05;100.00
19023;BME280;35226;48.606;8.858;2022-09-01T02:57:13;96475.53;;;17.01;100.00
19023;BME280;35226;48.606;8.858;2022-09-01T02:59:39;96468.69;;;17.02;100.00
19023;BME280;35226;48.606;8.858;2022-09-01T03:02:08;96478.88;;;17.06;100.00
19023;BME280;35226;48.606;8.858;2022-09-01T03:04:34;96470.97;;;17.04;100.00
19023;BME280;35226;48.606;8.858;2022-09-01T03:07:02;96475.97;;;17.15;100.00
19023;BME280;35226;48.606;8.858;2022-09-01T03:09:28;96479.16;;;17.08;100.00
19023;BME280;35226;48.606;8.858;2022-09-01T03:11:57;96481.00;;;17.11;100.00
19023;BME280;35226;48.606;8.858;2022-09-01T03:14:23;96475.03;;;17.03;100.00
19023;BME280;35226;48.606;8.858;2022-09-01T03:16:50;96465.22;;;16.93;100.00
19023;BME280;35226;48.606;8.858;2022-09-01T03:19:16;96467.16;;;17.01;100.00
19023;BME280;35226;48.606;8.858;2022-09-01T03:21:44;96477.16;;;17.08;100.00
19023;BME280;35226;48.606;8.858;2022-09-01T03:24:15;96472.91;;;16.98;100.00
19023;BME280;35226;48.606;8.858;2022-09-01T03:26:44;96470.69;;;16.87;100.00
19023;BME280;35226;48.606;8.858;2022-09-01T03:29:11;96473.19;;;16.85;100.00
19023;BME280;35226;48.606;8.858;2022-09-01T03:31:37;96471.94;;;16.86;100.00
19023;BME280;35226;48.606;8.858;2022-09-01T03:34:03;96475.22;;;16.85;100.00
19023;BME280;35226;48.606;8.858;2022-09-01T03:36:38;96479.25;;;16.69;100.00
19023;BME280;35226;48.606;8.858;2022-09-01T03:39:04;96476.16;;;16.67;100.00
19023;BME280;35226;48.606;8.858;2022-09-01T03:41:30;96465.78;;;16.68;100.00
19023;BME280;35226;48.606;8.858;2022-09-01T03:43:57;96464.13;;;16.61;100.00
19023;BME280;35226;48.606;8.858;2022-09-01T03:46:26;96463.75;;;16.68;100.00
19023;BME280;35226;48.606;8.858;2022-09-01T03:48:57;96466.13;;;16.60;100.00
19023;BME280;35226;48.606;8.858;2022-09-01T03:51:28;96463.00;;;16.68;100.00
19023;BME280;35226;48.606;8.858;2022-09-01T03:53:56;96464.25;;;16.67;100.00
19023;BME280;35226;48.606;8.858;2022-09-01T03:56:22;96469.63;;;16.70;100.00
19023;BME280;35226;48.606;8.858;2022-09-01T03:58:50;96460.78;;;16.72;100.00
19023;BME280;35226;48.606;8.858;2022-09-01T04:01:18;96464.66;;;16.74;100.00
19023;BME280;35226;48.606;8.858;2022-09-01T04:03:44;96469.25;;;16.77;100.00
19023;BME280;35226;48.606;8.858;2022-09-01T04:06:12;96467.88;;;16.58;100.00
19023;BME280;35226;48.606;8.858;2022-09-01T04:08:37;96469.31;;;16.53;100.00
19023;BME280;35226;48.606;8.858;2022-09-01T04:11:11;96471.81;;;16.51;100.00
19023;BME280;35226;48.606;8.858;2022-09-01T04:13:40;96468.72;;;16.49;100.00
19023;BME280;35226;48.606;8.858;2022-09-01T04:16:16;96473.72;;;16.60;100.00
19023;BME280;35226;48.606;8.858;2022-09-01T04:19:02;96470.19;;;16.59;100.00
19023;BME280;35226;48.606;8.858;2022-09-01T04:21:43;96468.94;;;16.60;100.00
19023;BME280;35226;48.606;8.858;2022-09-01T04:24:11;96475.28;;;16.61;100.00
19023;BME280;35226;48.606;8.858;2022-09-01T04:26:40;96475.28;;;16.61;100.00
19023;BME280;35226;48.606;8.858;2022-09-01T04:29:06;96479.72;;;16.68;100.00
19023;BME280;35226;48.606;8.858;2022-09-01T04:31:35;96486.28;;;16.64;100.00
19023;BME280;35226;48.606;8.858;2022-09-01T04:34:02;96486.13;;;16.59;100.00
19023;BME280;35226;48.606;8.858;2022-09-01T04:36:34;96483.25;;;16.53;100.00
19023;BME280;35226;48.606;8.858;2022-09-01T04:39:03;96484.44;;;16.61;100.00
19023;BME280;35226;48.606;8.858;2022-09-01T04:41:34;96483.06;;;16.57;100.00
19023;BME280;35226;48.606;8.858;2022-09-01T04:44:05;96479.94;;;16.64;100.00
19023;BME280;35226;48.606;8.858;2022-09-01T04:46:39;96479.66;;;16.62;100.00
19023;BME280;35226;48.606;8.858;2022-09-01T04:49:08;96480.22;;;16.66;100.00
19023;BME280;35226;48.606;8.858;2022-09-01T04:51:40;96481.41;;;16.74;100.00
19023;BME280;35226;48.606;8.858;2022-09-01T04:54:08;96482.53;;;16.68;100.00
19023;BME280;35226;48.606;8.858;2022-09-01T04:56:37;96480.03;;;16.70;100.00
19023;BME280;35226;48.606;8.858;2022-09-01T04:59:11;96471.41;;;16.58;100.00
19023;BME280;35226;48.606;8.858;2022-09-01T05:01:38;96468.50;;;16.62;100.00
19023;BME280;35226;48.606;8.858;2022-09-01T05:04:15;96468.00;;;16.63;100.00
19023;BME280;35226;48.606;8.858;2022-09-01T05:06:44;96474.84;;;16.77;100.00
19023;BME280;35226;48.606;8.858;2022-09-01T05:09:12;96476.66;;;16.95;100.00
19023;BME280;35226;48.606;8.858;2022-09-01T05:11:51;96478.88;;;17.06;100.00
19023;BME280;35226;48.606;8.858;2022-09-01T05:14:28;96476.47;;;17.13;100.00
19023;BME280;35226;48.606;8.858;2022-09-01T05:16:58;96468.38;;;17.15;100.00
19023;BME280;35226;48.606;8.858;2022-09-01T05:19:25;96464.91;;;17.06;100.00
19023;BME280;35226;48.606;8.858;2022-09-01T05:21:56;96470.91;;;17.13;100.00
19023;BME280;35226;48.606;8.858;2022-09-01T05:24:24;96471.75;;;17.19;100.00
19023;BME280;35226;48.606;8.858;2022-09-01T05:26:59;96467.13;;;17.16;100.00
19023;BME280;35226;48.606;8.858;2022-09-01T05:29:27;96465.97;;;17.23;100.00
19023;BME280;35226;48.606;8.858;2022-09-01T05:31:54;96468.00;;;17.22;100.00
19023;BME280;35226;48.606;8.858;2022-09-01T05:34:21;96471.06;;;17.24;100.00
19023;BME280;35226;48.606;8.858;2022-09-01T05:36:54;96468.56;;;17.26;100.00
19023;BME280;35226;48.606;8.858;2022-09-01T05:39:21;96474.44;;;17.28;100.00
19023;BME280;35226;48.606;8.858;2022-09-01T05:41:47;96472.78;;;17.36;100.00
19023;BME280;35226;48.606;8.858;2022-09-01T05:44:15;96470.69;;;17.31;100.00
19023;BME280;35226;48.606;8.858;2022-09-01T05:46:46;96465.59;;;17.15;100.00
19023;BME280;35226;48.606;8.858;2022-09-01T05:49:12;96476.56;;;17.19;100.00
19023;BME280;35226;48.606;8.858;2022-09-01T05:51:42;96466.28;;;17.10;100.00
19023;BME280;35226;48.606;8.858;2022-09-01T05:54:08;96472.41;;;17.29;100.00
19023;BME280;35226;48.606;8.858;2022-09-01T05:56:35;96466.41;;;17.36;100.00
19023;BME280;35226;48.606;8.858;2022-09-01T05:59:05;96467.31;;;17.27;100.00
19023;BME280;35226;48.606;8.858;2022-09-01T06:01:31;96461.59;;;17.36;100.00
19023;BME280;35226;48.606;8.858;2022-09-01T06:04:01;96458.91;;;17.42;100.00
19023;BME280;35226;48.606;8.858;2022-09-01T06:06:40;96459.91;;;17.59;100.00
19023;BME280;35226;48.606;8.858;2022-09-01T06:09:13;96465.16;;;17.37;100.00
19023;BME280;35226;48.606;8.858;2022-09-01T06:11:39;96463.81;;;17.47;100.00
19023;BME280;35226;48.606;8.858;2022-09-01T06:14:07;96467.00;;;17.40;100.00
19023;BME280;35226;48.606;8.858;2022-09-01T06:16:36;96457.19;;;17.30;100.00
19023;BME280;35226;48.606;8.858;2022-09-01T06:19:03;96467.22;;;17.22;100.00
19023;BME280;35226;48.606;8.858;2022-09-01T06:21:30;96468.00;;;17.22;100.00
19023;BME280;35226;48.606;8.858;2022-09-01T06:23:57;96468.25;;;17.24;100.00
19023;BME280;35226;48.606;8.858;2022-09-01T06:26:27;96467.78;;;17.26;100.00
19023;BME280;35226;48.606;8.858;2022-09-01T06:28:59;96472.00;;;17.51;100.00
19023;BME280;35226;48.606;8.858;2022-09-01T06:31:28;96471.00;;;17.54;100.00
19023;BME280;35226;48.606;8.858;2022-09-01T06:34:02;96470.75;;;17.52;100.00
19023;BME280;35226;48.606;8.858;2022-09-01T06:36:29;96477.09;;;17.52;100.00
19023;BME280;35226;48.606;8.858;2022-09-01T06:38:57;96474.78;;;17.51;100.00
19023;BME280;35226;48.606;8.858;2022-09-01T06:41:26;96468.97;;;17.54;100.00
19023;BME280;35226;48.606;8.858;2022-09-01T06:43:54;96476.59;;;17.54;100.00
19023;BME280;35226;48.606;8.858;2022-09-01T06:46:21;96479.03;;;17.46;100.00
19023;BME280;35226;48.606;8.858;2022-09-01T06:48:48;96478.91;;;17.55;100.00
19023;BME280;35226;48.606;8.858;2022-09-01T06:51:17;96470.75;;;17.37;100.00
19023;BME280;35226;48.606;8.858;2022-09-01T06:53:47;96482.59;;;17.47;100.00
19023;BME280;35226;48.606;8.858;2022-09-01T06:56:17;96483.44;;;17.67;100.00
19023;BME280;35226;48.606;8.858;2022-09-01T06:58:45;96482.41;;;17.85;100.00
19023;BME280;35226;48.606;8.858;2022-09-01T07:01:17;96478.34;;;17.86;100.00
19023;BME280;35226;48.606;8.858;2022-09-01T07:03:47;96482.41;;;17.85;100.00
19023;BME280;35226;48.606;8.858;2022-09-01T07:06:25;96487.66;;;17.78;100.00
19023;BME280;35226;48.606;8.858;2022-09-01T07:09:18;96493.75;;;17.96;100.00
19023;BME280;35226;48.606;8.858;2022-09-01T07:12:02;96489.56;;;18.06;100.00
19023;BME280;35226;48.606;8.858;2022-09-01T07:14:29;96488.47;;;17.84;100.00
19023;BME280;35226;48.606;8.858;2022-09-01T07:16:55;96493.97;;;18.13;100.00
19023;BME280;35226;48.606;8.858;2022-09-01T07:19:23;96491.16;;;18.13;100.00
19023;BME280;35226;48.606;8.858;2022-09-01T07:21:54;96495.88;;;18.01;100.00
19023;BME280;35226;48.606;8.858;2022-09-01T07:24:21;96502.44;;;18.19;100.00
19023;BME280;35226;48.606;8.858;2022-09-01T07:27:07;96494.03;;;18.39;100.00
19023;BME280;35226;48.606;8.858;2022-09-01T07:29:34;96496.25;;;18.35;100.00
19023;BME280;35226;48.606;8.858;2022-09-01T07:32:00;96497.81;;;18.36;100.00
19023;BME280;35226;48.606;8.858;2022-09-01T07:34:27;96504.06;;;18.51;100.00
19023;BME280;35226;48.606;8.858;2022-09-01T07:36:55;96506.84;;;18.66;100.00
19023;BME280;35226;48.606;8.858;2022-09-01T07:39:21;96503.25;;;18.65;100.00
19023;BME280;35226;48.606;8.858;2022-09-01T07:42:05;96499.31;;;18.77;100.00
19023;BME280;35226;48.606;8.858;2022-09-01T07:44:52;96502.44;;;18.85;100.00
19023;BME280;35226;48.606;8.858;2022-09-01T07:47:43;96503.38;;;18.76;100.00
19023;BME280;35226;48.606;8.858;2022-09-01T07:50:11;96509.38;;;18.90;100.00
19023;BME280;35226;48.606;8.858;2022-09-01T07:52:41;96510.66;;;18.89;100.00
19023;BME280;35226;48.606;8.858;2022-09-01T07:55:12;96510.91;;;18.91;100.00
19023;BME280;35226;48.606;8.858;2022-09-01T07:57:40;96507.28;;;18.84;100.00
19023;BME280;35226;48.606;8.858;2022-09-01T08:00:09;96507.69;;;18.98;100.00
19023;BME280;35226;48.606;8.858;2022-09-01T08:02:39;96519.66;;;18.98;100.00
19023;BME280;35226;48.606;8.858;2022-09-01T08:05:09;96518.22;;;19.08;100.00
19023;BME280;35226;48.606;8.858;2022-09-01T08:07:36;96518.72;;;19.07;100.00
19023;BME280;35226;48.606;8.858;2022-09-01T08:10:03;96515.41;;;19.08;100.00
19023;BME280;35226;48.606;8.858;2022-09-01T08:12:32;96522.31;;;19.13;100.00
19023;BME280;35226;48.606;8.858;2022-09-01T08:15:01;96525.00;;;19.28;100.00
19023;BME280;35226;48.606;8.858;2022-09-01T08:17:26;96522.03;;;19.37;100.00
19023;BME280;35226;48.606;8.858;2022-09-01T08:19:53;96524.38;;;19.44;100.00
19023;BME280;35226;48.606;8.858;2022-09-01T08:22:36;96513.91;;;19.39;100.00
19023;BME280;35226;48.606;8.858;2022-09-01T08:25:12;96526.69;;;19.45;100.00
19023;BME280;35226;48.606;8.858;2022-09-01T08:27:38;96519.38;;;19.48;100.00
19023;BME280;35226;48.606;8.858;2022-09-01T08:30:05;96520.25;;;19.65;100.00
19023;BME280;35226;48.606;8.858;2022-09-01T08:32:32;96520.34;;;19.76;100.00
19023;BME280;35226;48.606;8.858;2022-09-01T08:34:59;96518.09;;;19.86;100.00
19023;BME280;35226;48.606;8.858;2022-09-01T08:37:25;96521.41;;;19.84;100.00
19023;BME280;35226;48.606;8.858;2022-09-01T08:39:51;96516.66;;;20.02;100.00
19023;BME280;35226;48.606;8.858;2022-09-01T08:42:34;96523.13;;;19.76;100.00
19023;BME280;35226;48.606;8.858;2022-09-01T08:47:52;96520.53;;;20.10;100.00
19023;BME280;35226;48.606;8.858;2022-09-01T08:50:18;96522.88;;;20.17;100.00
19023;BME280;35226;48.606;8.858;2022-09-01T08:53:30;96518.66;;;20.38;100.00
19023;BME280;35226;48.606;8.858;2022-09-01T08:55:58;96525.84;;;20.50;100.00
19023;BME280;35226;48.606;8.858;2022-09-01T08:58:27;96522.19;;;20.33;100.00
19023;BME280;35226;48.606;8.858;2022-09-01T09:01:44;96516.38;;;20.37;100.00
19023;BME280;35226;48.606;8.858;2022-09-01T09:04:26;96515.63;;;20.47;100.00
19023;BME280;35226;48.606;8.858;2022-09-01T09:09:46;96524.56;;;20.46;100.00
19023;BME280;35226;48.606;8.858;2022-09-01T09:12:24;96526.94;;;20.64;100.00
19023;BME280;35226;48.606;8.858;2022-09-01T09:15:03;96528.72;;;20.67;100.00
19023;BME280;35226;48.606;8.858;2022-09-01T09:17:34;96523.88;;;20.67;100.00
19023;BME280;35226;48.606;8.858;2022-09-01T09:20:04;96523.38;;;20.69;100.00
19023;BME280;35226;48.606;8.858;2022-09-01T09:22:31;96526.72;;;20.73;100.00
19023;BME280;35226;48.606;8.858;2022-09-01T09:25:05;96533.78;;;20.57;100.00
19023;BME280;35226;48.606;8.858;2022-09-01T09:27:38;96526.13;;;20.58;100.00
19023;BME280;35226;48.606;8.858;2022-09-01T09:30:10;96528.97;;;20.69;100.00
19023;BME280;35226;48.606;8.858;2022-09-01T09:43:23;96526.53;;;21.04;100.00
19023;BME280;35226;48.606;8.858;2022-09-01T09:45:49;96519.13;;;21.07;100.00
19023;BME280;35226;48.606;8.858;2022-09-01T09:48:30;96527.84;;;21.15;100.00
19023;BME280;35226;48.606;8.858;2022-09-01T09:51:16;96521.94;;;21.01;100.00
19023;BME280;35226;48.606;8.858;2022-09-01T09:53:42;96525.25;;;21.17;100.00
19023;BME280;35226;48.606;8.858;2022-09-01T09:56:19;96517.59;;;21.12;100.00
19023;BME280;35226;48.606;8.858;2022-09-01T09:58:47;96517.59;;;20.95;100.00
19023;BME280;35226;48.606;8.858;2022-09-01T10:01:35;96511.00;;;21.20;100.00
19023;BME280;35226;48.606;8.858;2022-09-01T10:04:01;96510.22;;;21.20;100.00
19023;BME280;35226;48.606;8.858;2022-09-01T10:06:40;96515.63;;;21.23;100.00
19023;BME280;35226;48.606;8.858;2022-09-01T10:11:51;96514.34;;;21.24;100.00
19023;BME280;35226;48.606;8.858;2022-09-01T10:14:22;96510.25;;;21.42;100.00
19023;BME280;35226;48.606;8.858;2022-09-01T10:17:07;96502.56;;;21.48;100.00
19023;BME280;35226;48.606;8.858;2022-09-01T10:19:33;96509.47;;;21.36;100.00
19023;BME280;35226;48.606;8.858;2022-09-01T10:22:01;96511.50;;;21.35;100.00
19023;BME280;35226;48.606;8.858;2022-09-01T10:24:31;96502.59;;;21.42;100.00
19023;BME280;35226;48.606;8.858;2022-09-01T10:27:31;96510.75;;;21.74;100.00
19023;BME280;35226;48.606;8.858;2022-09-01T10:32:36;96502.31;;;21.74;100.00
19023;BME280;35226;48.606;8.858;2022-09-01T10:35:03;96498.50;;;21.60;100.00
19023;BME280;35226;48.606;8.858;2022-09-01T10:37:30;96496.44;;;21.72;100.00
19023;BME280;35226;48.606;8.858;2022-09-01T10:40:16;96494.88;;;21.76;100.00
19023;BME280;35226;48.606;8.858;2022-09-01T10:42:45;96489.75;;;22.08;100.00
19023;BME280;35226;48.606;8.858;2022-09-01T10:45:36;96491.00;;;22.19;100.00
19023;BME280;35226;48.606;8.858;2022-09-01T10:48:35;96494.34;;;22.11;100.00
19023;BME280;35226;48.606;8.858;2022-09-01T10:53:53;96482.81;;;22.21;100.00
19023;BME280;35226;48.606;8.858;2022-09-01T10:56:43;96483.94;;;22.59;100.00
19023;BME280;35226;48.606;8.858;2022-09-01T11:12:04;96478.25;;;22.64;100.00
19023;BME280;35226;48.606;8.858;2022-09-01T11:15:01;96485.63;;;22.78;100.00
19023;BME280;35226;48.606;8.858;2022-09-01T11:17:57;96480.72;;;22.84;100.00
19023;BME280;35226;48.606;8.858;2022-09-01T11:20:38;96470.78;;;22.72;100.00
19023;BME280;35226;48.606;8.858;2022-09-01T11:23:20;96472.19;;;22.49;100.00
19023;BME280;35226;48.606;8.858;2022-09-01T11:25:52;96481.09;;;22.59;100.00
19023;BME280;35226;48.606;8.858;2022-09-01T11:38:48;96470.28;;;22.79;96.94
19023;BME280;35226;48.606;8.858;2022-09-01T11:41:24;96473.13;;;22.63;92.96
19023;BME280;35226;48.606;8.858;2022-09-01T11:43:54;96477.91;;;22.84;99.06
19023;BME280;35226;48.606;8.858;2022-09-01T11:46:33;96480.72;;;22.84;97.10
19023;BME280;35226;48.606;8.858;2022-09-01T11:49:05;96476.94;;;22.76;97.93
19023;BME280;35226;48.606;8.858;2022-09-01T11:51:45;96473.03;;;22.91;95.44
19023;BME280;35226;48.606;8.858;2022-09-01T11:54:12;96463.75;;;23.01;96.08
19023;BME280;35226;48.606;8.858;2022-09-01T11:56:39;96465.44;;;23.45;94.21
19023;BME280;35226;48.606;8.858;2022-09-01T11:59:04;96473.25;;;23.64;92.07
19023;BME280;35226;48.606;8.858;2022-09-01T12:01:37;96466.25;;;23.70;83.77
19023;BME280;35226;48.606;8.858;2022-09-01T12:04:24;96459.59;;;23.97;85.17
19023;BME280;35226;48.606;8.858;2022-09-01T12:06:54;96465.50;;;23.94;86.50
19023;BME280;35226;48.606;8.858;2022-09-01T12:09:21;96458.44;;;23.82;82.93
19023;BME280;35226;48.606;8.858;2022-09-01T12:11:46;96457.94;;;23.53;80.64
19023;BME280;35226;48.606;8.858;2022-09-01T12:14:20;96470.31;;;23.45;79.02
19023;BME280;35226;48.606;8.858;2022-09-01T12:17:01;96468.53;;;23.42;78.97
19023;BME280;35226;48.606;8.858;2022-09-01T12:19:31;96457.66;;;23.21;86.13
19023;BME280;35226;48.606;8.858;2022-09-01T12:22:13;96467.91;;;23.60;84.42
19023;BME280;35226;48.606;8.858;2022-09-01T12:24:48;96460.31;;;23.49;77.07
19023;BME280;35226;48.606;8.858;2022-09-01T12:27:14;96461.72;;;23.61;82.90
19023;BME280;35226;48.606;8.858;2022-09-01T12:29:40;96461.50;;;23.59;79.40
19023;BME280;35226;48.606;8.858;2022-09-01T12:32:06;96458.75;;;23.48;79.71
19023;BME280;35226;48.606;8.858;2022-09-01T12:39:33;96464.28;;;23.89;81.21
19023;BME280;35226;48.606;8.858;2022-09-01T12:42:06;96457.06;;;23.70;76.20
19023;BME280;35226;48.606;8.858;2022-09-01T12:50:05;96455.31;;;24.10;75.86
19023;BME280;35226;48.606;8.858;2022-09-01T12:52:35;96448.78;;;24.45;71.83
19023;BME280;35226;48.606;8.858;2022-09-01T12:55:17;96454.50;;;24.39;67.81
19023;BME280;35226;48.606;8.858;2022-09-01T12:58:04;96458.47;;;24.49;66.95
19023;BME280;35226;48.606;8.858;2022-09-01T13:03:25;96440.44;;;25.08;64.28
19023;BME280;35226;48.606;8.858;2022-09-01T13:06:02;96441.44;;;25.43;64.01
19023;BME280;35226;48.606;8.858;2022-09-01T13:08:33;96441.66;;;25.90;62.71
19023;BME280;35226;48.606;8.858;2022-09-01T13:11:06;96445.47;;;25.79;59.79
19023;BME280;35226;48.606;8.858;2022-09-01T13:13:33;96443.81;;;25.71;57.78
19023;BME280;35226;48.606;8.858;2022-09-01T13:16:03;96449.69;;;25.09;56.66
19023;BME280;35226;48.606;8.858;2022-09-01T13:18:37;96449.25;;;25.05;61.86
19023;BME280;35226;48.606;8.858;2022-09-01T13:21:03;96445.28;;;24.76;60.14
19023;BME280;35226;48.606;8.858;2022-09-01T13:23:30;96442.59;;;24.84;64.65
19023;BME280;35226;48.606;8.858;2022-09-01T13:25:55;96433.16;;;25.32;65.58
19023;BME280;35226;48.606;8.858;2022-09-01T13:28:24;96430.63;;;25.60;60.88
19023;BME280;35226;48.606;8.858;2022-09-01T13:30:57;96432.16;;;25.61;52.63
19023;BME280;35226;48.606;8.858;2022-09-01T13:33:25;96432.06;;;25.80;56.13
19023;BME280;35226;48.606;8.858;2022-09-01T13:35:52;96418.03;;;25.88;52.64
19023;BME280;35226;48.606;8.858;2022-09-01T13:38:18;96422.94;;;26.13;54.23
19023;BME280;35226;48.606;8.858;2022-09-01T13:40:48;96413.91;;;26.75;51.53
19023;BME280;35226;48.606;8.858;2022-09-01T13:43:15;96419.03;;;26.43;50.25
19023;BME280;35226;48.606;8.858;2022-09-01T13:45:42;96426.22;;;26.31;48.81
19023;BME280;35226;48.606;8.858;2022-09-01T13:48:08;96424.25;;;26.52;51.81
19023;BME280;35226;48.606;8.858;2022-09-01T13:50:35;96420.13;;;26.13;54.04
19023;BME280;35226;48.606;8.858;2022-09-01T13:53:03;96413.47;;;26.24;55.66
19023;BME280;35226;48.606;8.858;2022-09-01T13:55:33;96415.72;;;26.26;54.90
19023;BME280;35226;48.606;8.858;2022-09-01T13:57:59;96418.00;;;25.61;55.25
19023;BME280;35226;48.606;8.858;2022-09-01T14:00:28;96410.22;;;25.49;56.66
19023;BME280;35226;48.606;8.858;2022-09-01T14:02:56;96410.56;;;25.58;56.74
19023;BME280;35226;48.606;8.858;2022-09-01T14:05:28;96410.22;;;25.49;57.23
19023;BME280;35226;48.606;8.858;2022-09-01T14:07:54;96409.78;;;25.44;57.19
19023;BME280;35226;48.606;8.858;2022-09-01T14:10:21;96409.34;;;25.40;56.80
19023;BME280;35226;48.606;8.858;2022-09-01T14:12:49;96411.69;;;25.23;57.31
19023;BME280;35226;48.606;8.858;2022-09-01T14:15:17;96418.59;;;25.09;58.28